< < Back
Terminal Aerodrome Forecast


Current Version              Previous Versions:   1  2  3  4  5  6  7  8  9  

Terminal Aerodrome Forecast

019
FTUS42 KJAX 232320
TAFSSI
TAF
KSSI 232320Z 2400/2424 06008KT P6SM SCT025
     FM240300 06008KT P6SM SCT020 BKN250
     FM241500 06012G24KT P6SM VCSH SCT030 SCT250=

Latest METAR

966
SAUS70 KWBC 242100 RRF
MTRSSI
METAR KSSI 242053Z AUTO 07014G23KT 10SM FEW030 FEW037 31/21 A3015 RMK
AO2 SLP212 T03060206 58012


USA.gov is the U.S. government's official web portal to all federal, state and local government web resources and services.